x

Southeast Hawaii - 205 Nm Southeast Of Hilo, Hi (51004) Wave Buoy

2:50am - Thu 23rd Feb 2017 All times are HST. -10 hours from GMT.

  • Sig Wave height 7.9ft
  • Swell Direction
  • Peak Period 8s
  • Average Period 6s
  • Wind
    20mph, 27mph gusts
  • Sea Temp 76°f
  • Sea Pressure 1017.5mb
  • Southeast Hawaii - 205 Nm Southeast Of Hilo, Hi
  • Southeast Hawaii - 205 Nm Southeast Of Hilo, Hi

More Historic Weather Station data

Upgrade to MSW Pro to gain access to the past 30 days of data for over 8000 Wavebouys and Weather Stations around the globe.

Join Pro

Comparision Forecast

View Surf forecast
   
Thu 02/23 2:50am 8ft 8s 6s 20 27 mph 1017.5mb 76f
1:50am 8ft 8s 6s 20 25 mph 1018.3mb 76f
12:50am 9.5ft 9s 7s 22 27 mph 1018.8mb 76f
Wed 02/22 3:50am 10ft 8s 6s 27 34 mph 1018.2mb 77f
2:50am 10ft 8s 6s 29 36 mph 1018.2mb 77f
12:50am 10ft 8s 7s 27 34 mph 1019.6mb 77f
Tue 02/21 11:50pm 10ft 8s 6s 27 31 mph 1020.1mb 77f
10:50pm 10ft 8s 6s 27 31 mph 1020.7mb 77f
9:50pm 11ft 8s 7s 27 34 mph 1020.6mb 77f
8:50pm 11ft 8s 7s 29 34 mph 1020.4mb 77f
7:50pm 10ft 8s 6s 27 31 mph 1020.1mb 77f
6:50pm 10ft 8s 7s 27 31 mph 1019.6mb 77f
5:50pm 10ft 12s 7s 25 29 mph 1019.3mb 77f
4:50pm 10.5ft 8s 7s 27 31 mph 1018.8mb 77f
3:50pm 10ft 13s 7s 27 31 mph 1018.5mb 77f
2:50pm 10ft 8s 7s 25 29 mph 1018.4mb 77f
1:50pm 11ft 13s 7s 25 31 mph 1018.9mb 77f
12:50pm 10.5ft 8s 7s 25 31 mph 1019.6mb 77f
11:50am 11ft 8s 7s 25 29 mph 1020.8mb 77f
10:50am 11ft 13s 7s 25 29 mph 1021.5mb 77f
9:50am 11.5ft 13s 7s 25 29 mph 1021.6mb 77f
8:50am 12ft 8s 7s 27 31 mph 1021.3mb 77f
7:50am 11ft 13s 7s 27 34 mph 1020.6mb 77f
6:50am 12ft 13s 7s 29 34 mph 1020mb 77f
5:50am 11.5ft 14s 7s 22 29 mph 1019.9mb 77f
4:50am 12ft 8s 7s 22 27 mph 1019.1mb 77f
3:50am 12ft 14s 7s 25 31 mph 1018.9mb 77f
2:50am 11.5ft 13s 7s 25 31 mph 1019mb 77f
1:50am 11.5ft 14s 7s 25 31 mph 1019.4mb 77f
12:50am 13ft 14s 8s 25 29 mph 1019.9mb 77f
Mon 02/20 11:50pm 12.5ft 8s 7s 25 29 mph 1020.4mb 77f
10:50pm 13ft 13s 8s 27 31 mph 1020.4mb 77f
9:50pm 12.5ft 14s 8s 27 34 mph 1020.4mb 77f
8:50pm 12.5ft 15s 8s 25 31 mph 1020.3mb 77f
7:50pm 12.5ft 15s 8s 27 31 mph 1019.6mb 77f
6:50pm 13ft 14s 8s 27 31 mph 1019.1mb 77f
5:50pm 12.5ft 15s 7s 25 29 mph 1018.6mb 77f
4:50pm 13ft 14s 7s 27 34 mph 1018mb 77f
3:50pm 11ft 13s 7s 29 36 mph 1017.8mb 77f
2:50pm 12ft 14s 7s 27 31 mph 1017.8mb 77f
1:50pm 12ft 14s 7s 27 34 mph 1018.1mb 77f
12:50pm 12ft 14s 7s 25 31 mph 1018.7mb 77f
11:50am 12ft 14s 7s 25 31 mph 1019.6mb 77f
10:50am 11.5ft 13s 7s 25 31 mph 1020.4mb 77f
9:50am 11ft 14s 7s 22 27 mph 1020.9mb 77f
8:50am 10.5ft 7s 7s 25 29 mph 1020.5mb 77f
7:50am 9ft 8s 7s 27 34 mph 1019.7mb 77f
6:50am 7.5ft 8s 6s 25 31 mph 1019.1mb 77f
5:50am 6.5ft 8s 6s 22 27 mph 1018.5mb 77f
4:50am 6.5ft 6s 6s 20 25 mph 1018.1mb 77f
3:50am 6ft 6s 5s 22 27 mph 1017.9mb 77f
2:50am 6.5ft 6s 5s 22 27 mph 1018.1mb 77f
1:50am 6ft 6s 5s 22 25 mph 1018.6mb 77f
12:50am 6ft 5s 5s 25 27 mph 1018.9mb 77f
Sun 02/19 11:50pm 6ft 5s 5s 25 27 mph 1019.5mb 77f
10:50pm 5.5ft 5s 5s 22 27 mph 1019.7mb 77f
9:50pm 6ft 5s 5s 22 25 mph 1019.5mb 77f
8:50pm 5.5ft 10s 5s 20 25 mph 1019.5mb 77f
7:50pm 5ft 12s 5s 20 25 mph 1019mb 77f
6:50pm 5ft 8s 5s 20 22 mph 1018.3mb 77f
5:50pm 5ft 11s 5s 20 22 mph 1018.2mb 77f
4:50pm 5ft 8s 5s 18 22 mph 1017.5mb 78f
3:50pm 5ft 11s 5s 16 20 mph 1016.6mb 78f
2:50pm 5ft 11s 6s 18 22 mph 1016.7mb 78f